Time;durP1;ratioP1;P1;durP2;ratioP2;P2;SDS_P1;SDS_P2;PMS_P1;PMS_P2;Temp;Humidity;BMP_temperature;BMP_pressure;BME280_temperature;BME280_humidity;BME280_pressure;Samples;Min_cycle;Max_cycle;Signal;HPM_P1;HPM_P2
2022/07/04 00:00:28;;;;;;;3.65;2.50;;;14.10;99.90;;;;;;5058150;28;20407;-82
2022/07/04 00:02:54;;;;;;;3.63;2.30;;;14.10;99.90;;;;;;5086849;28;20048;-82
2022/07/04 00:05:21;;;;;;;3.25;2.33;;;14.20;99.90;;;;;;5079397;28;20032;-82
2022/07/04 00:07:49;;;;;;;3.50;2.58;;;14.10;99.90;;;;;;5083642;28;20046;-81
2022/07/04 00:10:20;;;;;;;4.18;2.50;;;14.00;99.90;;;;;;5059119;28;20472;-81
2022/07/04 00:12:47;;;;;;;4.53;2.60;;;13.90;99.90;;;;;;5091297;28;20044;-82
2022/07/04 00:15:14;;;;;;;4.40;2.50;;;13.90;99.90;;;;;;5106506;28;20403;-82
2022/07/04 00:17:40;;;;;;;4.90;2.50;;;13.90;99.90;;;;;;5082178;28;20043;-82
2022/07/04 00:20:07;;;;;;;3.13;2.53;;;13.80;99.90;;;;;;5109296;28;20039;-82
2022/07/04 00:22:33;;;;;;;5.85;2.92;;;13.90;99.90;;;;;;5094751;28;20077;-82
2022/07/04 00:24:59;;;;;;;5.20;3.22;;;13.80;99.90;;;;;;5082855;28;20048;-81
2022/07/04 00:27:24;;;;;;;3.95;2.58;;;13.80;99.90;;;;;;5099939;28;20103;-82
2022/07/04 00:29:51;;;;;;;4.22;2.72;;;13.80;99.90;;;;;;5082793;28;20408;-81
2022/07/04 00:32:16;;;;;;;4.85;2.60;;;13.80;99.90;;;;;;5088078;28;20062;-81
2022/07/04 00:34:42;;;;;;;6.47;3.17;;;13.80;99.90;;;;;;5081878;28;20047;-81
2022/07/04 00:37:08;;;;;;;6.00;3.30;;;13.70;99.90;;;;;;5066395;28;20040;-81
2022/07/04 00:39:34;;;;;;;6.18;3.10;;;13.70;99.90;;;;;;5087542;28;20305;-81
2022/07/04 00:41:59;;;;;;;4.30;2.85;;;13.70;99.90;;;;;;5068353;28;20067;-81
2022/07/04 00:44:25;;;;;;;4.38;3.22;;;13.60;99.90;;;;;;5075823;28;20503;-81
2022/07/04 00:46:51;;;;;;;7.63;2.80;;;13.60;99.90;;;;;;5088377;28;20028;-82
2022/07/04 00:49:18;;;;;;;6.25;2.95;;;13.60;99.90;;;;;;5081449;28;20071;-82
2022/07/04 00:51:44;;;;;;;5.25;3.10;;;13.50;99.90;;;;;;5093044;28;20039;-81
2022/07/04 00:54:12;;;;;;;6.70;3.10;;;13.50;99.90;;;;;;5080459;28;20511;-81
2022/07/04 00:56:40;;;;;;;5.72;3.28;;;13.50;99.90;;;;;;5109506;28;20093;-82
2022/07/04 00:59:06;;;;;;;3.45;2.88;;;13.50;99.90;;;;;;5087514;28;20040;-82
2022/07/04 01:01:32;;;;;;;;;;;13.50;99.90;;;;;;5084489;28;20040;-81
2022/07/04 01:03:59;;;;;;;4.28;3.25;;;13.50;99.90;;;;;;5085299;28;19922;-82
2022/07/04 01:06:24;;;;;;;;;;;13.40;99.90;;;;;;5071043;28;20127;-81
2022/07/04 01:08:50;;;;;;;4.40;3.20;;;13.50;99.90;;;;;;5078901;28;19944;-82
2022/07/04 01:11:17;;;;;;;5.32;3.53;;;13.50;99.90;;;;;;5085245;28;20036;-82
2022/07/04 01:13:43;;;;;;;4.45;3.08;;;13.50;99.90;;;;;;5079906;28;20107;-82
2022/07/04 01:16:10;;;;;;;3.22;2.78;;;13.40;99.90;;;;;;5102285;28;20514;-82
2022/07/04 01:18:37;;;;;;;6.00;3.50;;;13.50;99.90;;;;;;5084675;28;20055;-83
2022/07/04 01:21:02;;;;;;;;;;;13.50;99.90;;;;;;5096745;28;20084;-82
2022/07/04 01:23:28;;;;;;;7.43;3.80;;;13.40;99.90;;;;;;5091503;28;20326;-80
2022/07/04 01:25:55;;;;;;;6.22;3.92;;;13.30;99.90;;;;;;5084770;28;20040;-82
2022/07/04 01:28:22;;;;;;;4.85;3.70;;;13.40;99.90;;;;;;5103867;28;20035;-82
2022/07/04 01:30:48;;;;;;;4.28;3.75;;;13.40;99.90;;;;;;5084090;28;20035;-82
2022/07/04 01:33:14;;;;;;;5.53;3.40;;;13.30;99.90;;;;;;5108836;28;20118;-82
2022/07/04 01:35:40;;;;;;;5.95;4.18;;;13.30;99.90;;;;;;5072552;28;20040;-82
2022/07/04 01:38:06;;;;;;;5.30;3.80;;;13.30;99.90;;;;;;5079203;28;20040;-82
2022/07/04 01:40:32;;;;;;;6.38;3.80;;;13.20;99.90;;;;;;5059659;28;20396;-81
2022/07/04 01:42:58;;;;;;;6.35;4.15;;;13.30;99.90;;;;;;5076472;28;20040;-81
2022/07/04 01:45:24;;;;;;;6.38;4.20;;;13.20;99.90;;;;;;5092821;28;20385;-81
2022/07/04 01:47:50;;;;;;;5.05;3.70;;;13.20;99.90;;;;;;5078205;28;20059;-81
2022/07/04 01:50:16;;;;;;;5.13;3.95;;;13.10;99.90;;;;;;5081206;28;20420;-81
2022/07/04 01:52:42;;;;;;;9.75;4.32;;;13.10;99.90;;;;;;5084613;28;20440;-82
2022/07/04 01:55:09;;;;;;;6.28;4.38;;;13.10;99.90;;;;;;5111368;28;20127;-82
2022/07/04 01:57:35;;;;;;;6.93;4.03;;;13.10;99.90;;;;;;5089008;28;20118;-81
2022/07/04 02:02:45;;;;;;;5.50;4.25;;;13.00;99.90;;;;;;5095845;28;20070;-81
2022/07/04 02:05:11;;;;;;;5.93;4.15;;;13.00;99.90;;;;;;5091230;28;20372;-82
2022/07/04 02:07:37;;;;;;;6.85;4.68;;;13.00;99.90;;;;;;5077890;28;20157;-82
2022/07/04 02:10:03;;;;;;;8.90;4.93;;;13.00;99.90;;;;;;5086311;28;20411;-82
2022/07/04 02:15:12;;;;;;;6.85;4.95;;;13.00;99.90;;;;;;5075597;28;20140;-81
2022/07/04 02:17:38;;;;;;;7.63;4.87;;;13.00;99.90;;;;;;5078002;28;20099;-82
2022/07/04 02:20:06;;;;;;;7.20;4.88;;;12.90;99.90;;;;;;5083425;28;20074;-82
2022/07/04 02:22:32;;;;;;;7.57;4.30;;;12.90;99.90;;;;;;5079846;28;20544;-81
2022/07/04 02:24:58;;;;;;;7.55;5.30;;;12.80;99.90;;;;;;5075696;28;20467;-81
2022/07/04 02:27:23;;;;;;;6.80;5.20;;;12.80;99.90;;;;;;5093627;28;20047;-82
2022/07/04 02:29:49;;;;;;;8.00;5.35;;;12.80;99.90;;;;;;5064324;28;20315;-82
2022/07/04 02:32:15;;;;;;;6.45;5.15;;;12.80;99.90;;;;;;5088818;28;20058;-82
2022/07/04 02:34:40;;;;;;;10.18;5.35;;;12.70;99.90;;;;;;5085811;28;20484;-82
2022/07/04 02:37:06;;;;;;;6.25;5.50;;;12.70;99.90;;;;;;5086551;28;20726;-81
2022/07/04 02:39:35;;;;;;;7.80;4.97;;;12.70;99.90;;;;;;5086943;28;20075;-82
2022/07/04 02:42:01;;;;;;;9.57;5.88;;;12.70;99.90;;;;;;5061269;28;20075;-81
2022/07/04 02:44:26;;;;;;;6.05;5.38;;;12.70;99.90;;;;;;5085413;28;20112;-81
2022/07/04 02:46:52;;;;;;;7.10;5.85;;;12.70;99.90;;;;;;5088592;28;20040;-81
2022/07/04 02:49:18;;;;;;;10.00;6.30;;;12.70;99.90;;;;;;5090204;28;20043;-81
2022/07/04 02:51:43;;;;;;;7.55;5.72;;;12.80;99.90;;;;;;5086138;28;20374;-82
2022/07/04 02:54:09;;;;;;;9.07;6.27;;;12.70;99.90;;;;;;5076462;28;20495;-82
2022/07/04 02:56:34;;;;;;;6.72;5.72;;;12.70;99.90;;;;;;5087854;28;20505;-80
2022/07/04 02:59:00;;;;;;;12.50;6.60;;;12.70;99.90;;;;;;5095448;28;20066;-81
2022/07/04 03:01:26;;;;;;;9.90;6.20;;;12.70;99.90;;;;;;5086726;28;20801;-82
2022/07/04 03:03:51;;;;;;;9.03;6.10;;;12.70;99.90;;;;;;5069607;28;20278;-81
2022/07/04 03:06:17;;;;;;;8.52;6.28;;;12.70;99.90;;;;;;5094367;28;20042;-81
2022/07/04 03:08:43;;;;;;;10.10;6.25;;;12.70;99.90;;;;;;5099188;28;20031;-83
2022/07/04 03:11:09;;;;;;;9.18;6.15;;;12.70;99.90;;;;;;5080880;28;20119;-81
2022/07/04 03:13:36;;;;;;;8.05;6.15;;;12.70;99.90;;;;;;5086364;28;20036;-81
2022/07/04 03:16:02;;;;;;;11.18;6.88;;;12.70;99.90;;;;;;5075084;28;20518;-82
2022/07/04 03:18:28;;;;;;;7.78;6.35;;;12.70;99.90;;;;;;5084599;28;20043;-81
2022/07/04 03:20:54;;;;;;;9.80;6.43;;;12.70;99.90;;;;;;5088607;28;20072;-81
2022/07/04 03:23:20;;;;;;;10.00;6.20;;;12.60;99.90;;;;;;5093619;28;20043;-81
2022/07/04 03:25:45;;;;;;;11.93;6.47;;;12.60;99.90;;;;;;5095896;28;20511;-82
2022/07/04 03:28:11;;;;;;;8.25;6.53;;;12.70;99.90;;;;;;5083905;28;20071;-81
2022/07/04 03:30:36;;;;;;;9.68;7.00;;;12.60;99.90;;;;;;5072695;28;20043;-82
2022/07/04 03:33:02;;;;;;;8.95;6.60;;;12.60;99.90;;;;;;5070348;28;20032;-81
2022/07/04 03:35:29;;;;;;;9.48;6.82;;;12.60;99.90;;;;;;5083445;28;20046;-80
2022/07/04 03:37:55;;;;;;;10.35;6.30;;;12.60;99.90;;;;;;5078298;28;20444;-81
2022/07/04 03:40:22;;;;;;;9.27;6.45;;;12.50;99.90;;;;;;5116081;28;20096;-81
2022/07/04 03:42:48;;;;;;;7.57;5.90;;;12.60;99.90;;;;;;5100351;28;20111;-81
2022/07/04 03:45:14;;;;;;;9.00;6.15;;;12.60;99.90;;;;;;5089708;28;20511;-82
2022/07/04 03:47:40;;;;;;;7.88;6.25;;;12.60;99.90;;;;;;5072201;28;20032;-81
2022/07/04 03:50:06;;;;;;;8.90;6.65;;;12.60;99.90;;;;;;5074453;28;20515;-81
2022/07/04 03:52:32;;;;;;;10.05;6.50;;;12.50;99.90;;;;;;5093821;28;20039;-82
2022/07/04 03:54:58;;;;;;;8.10;6.53;;;12.50;99.90;;;;;;5092991;28;20036;-82
2022/07/04 03:57:23;;;;;;;7.63;6.32;;;12.50;99.90;;;;;;5083653;28;20480;-81
2022/07/04 03:59:49;;;;;;;10.57;7.40;;;12.50;99.90;;;;;;5084780;28;20060;-82
2022/07/04 04:02:15;;;;;;;11.52;7.10;;;12.40;99.90;;;;;;5090683;28;20051;-81
2022/07/04 04:07:27;;;;;;;13.05;6.95;;;12.50;99.90;;;;;;5079713;28;20089;-82
2022/07/04 04:09:53;;;;;;;11.35;7.18;;;12.50;99.90;;;;;;5090384;28;20089;-80
2022/07/04 04:12:19;;;;;;;10.32;7.55;;;12.50;99.90;;;;;;5084551;28;20450;-80
2022/07/04 04:14:44;;;;;;;11.23;7.60;;;12.50;99.90;;;;;;5088324;28;20039;-82
2022/07/04 04:17:10;;;;;;;10.23;7.07;;;12.60;99.90;;;;;;5076054;28;20343;-81
2022/07/04 04:19:35;;;;;;;12.27;7.95;;;12.60;99.90;;;;;;5081197;28;20047;-82
2022/07/04 04:22:01;;;;;;;10.90;7.77;;;12.60;99.90;;;;;;5076433;28;20047;-82
2022/07/04 04:24:27;;;;;;;9.48;7.65;;;12.60;99.90;;;;;;5075304;28;20028;-81
2022/07/04 04:26:52;;;;;;;11.68;8.05;;;12.60;99.90;;;;;;5084844;28;20039;-80
2022/07/04 04:29:18;;;;;;;15.60;7.73;;;12.80;99.90;;;;;;5061893;28;20032;-82
2022/07/04 04:31:44;;;;;;;10.48;7.35;;;12.80;99.90;;;;;;5086939;28;20296;-82
2022/07/04 04:34:10;;;;;;;11.48;7.50;;;12.80;99.90;;;;;;5056520;28;20047;-83
2022/07/04 04:36:36;;;;;;;;;;;12.90;99.90;;;;;;5083385;28;20092;-83
2022/07/04 04:39:02;;;;;;;10.98;7.97;;;13.00;99.90;;;;;;5084581;28;19920;-82
2022/07/04 04:41:28;;;;;;;11.10;7.90;;;13.00;99.90;;;;;;5093144;28;20104;-81
2022/07/04 04:43:53;;;;;;;12.93;7.20;;;13.10;99.90;;;;;;5092048;28;20040;-81
2022/07/04 04:46:20;;;;;;;9.73;7.45;;;13.20;99.90;;;;;;5077414;28;20374;-81
2022/07/04 04:48:46;;;;;;;9.82;6.65;;;13.30;99.90;;;;;;5112265;28;20114;-82
2022/07/04 04:51:12;;;;;;;9.23;6.90;;;13.30;99.90;;;;;;5099542;28;20067;-81
2022/07/04 04:53:37;;;;;;;9.57;7.57;;;13.40;99.90;;;;;;5079001;28;20039;-81
2022/07/04 04:56:03;;;;;;;10.48;7.13;;;13.40;99.90;;;;;;5088263;28;20332;-81
2022/07/04 04:58:29;;;;;;;12.00;7.93;;;13.50;99.90;;;;;;5095528;28;20038;-82
2022/07/04 05:00:55;;;;;;;11.77;8.43;;;13.50;99.90;;;;;;5077964;28;20070;-83
2022/07/04 05:03:20;;;;;;;11.90;8.02;;;13.60;99.90;;;;;;5072552;28;20040;-83
2022/07/04 05:05:46;;;;;;;9.97;7.93;;;13.60;99.90;;;;;;5089283;28;20425;-82
2022/07/04 05:08:13;;;;;;;10.87;8.00;;;13.70;99.90;;;;;;5080331;28;20282;-82
2022/07/04 05:10:41;;;;;;;11.10;8.50;;;13.70;99.90;;;;;;5089923;28;20307;-83
2022/07/04 05:13:07;;;;;;;13.10;8.88;;;13.80;99.90;;;;;;5107906;28;20071;-82
2022/07/04 05:15:33;;;;;;;10.80;8.52;;;13.90;99.90;;;;;;5074003;28;20071;-82
2022/07/04 05:17:59;;;;;;;11.43;8.32;;;14.00;99.90;;;;;;5106405;28;20042;-82
2022/07/04 05:20:24;;;;;;;11.40;8.17;;;14.10;99.90;;;;;;5089347;28;20044;-82
2022/07/04 05:22:50;;;;;;;9.23;7.60;;;14.20;99.90;;;;;;5088262;28;20262;-82
2022/07/04 05:25:16;;;;;;;14.63;8.10;;;14.30;99.90;;;;;;5086682;28;20437;-83
2022/07/04 05:27:41;;;;;;;17.23;8.43;;;14.30;99.90;;;;;;5091130;28;20407;-81
2022/07/04 05:30:08;;;;;;;11.17;7.83;;;14.40;99.90;;;;;;5090559;28;20039;-82
2022/07/04 05:32:33;;;;;;;;;;;14.60;99.90;;;;;;5073084;28;20621;-82
2022/07/04 05:34:59;;;;;;;11.77;8.20;;;14.70;99.90;;;;;;5107365;28;19915;-82
2022/07/04 05:37:25;;;;;;;13.80;8.13;;;14.90;99.90;;;;;;5098501;28;20044;-83
2022/07/04 05:39:51;;;;;;;10.82;8.18;;;15.00;99.90;;;;;;5099626;28;20511;-82
2022/07/04 05:42:17;;;;;;;11.20;8.35;;;15.00;99.90;;;;;;5092715;28;20048;-81
2022/07/04 05:44:43;;;;;;;12.40;8.20;;;15.10;99.90;;;;;;5090887;28;20035;-83
2022/07/04 05:47:09;;;;;;;12.60;8.30;;;15.20;99.90;;;;;;5062847;28;20036;-82
2022/07/04 05:49:34;;;;;;;10.88;8.27;;;15.30;99.90;;;;;;5087030;28;20391;-82
2022/07/04 05:52:01;;;;;;;11.15;7.43;;;15.50;99.90;;;;;;5089782;28;20123;-83
2022/07/04 05:54:27;;;;;;;10.63;7.63;;;15.60;99.90;;;;;;5075194;28;20086;-82
2022/07/04 05:56:53;;;;;;;10.95;7.10;;;15.80;99.90;;;;;;5085670;28;20119;-81
2022/07/04 05:59:18;;;;;;;14.70;8.13;;;16.00;99.90;;;;;;5083321;28;20036;-82
2022/07/04 06:01:44;;;;;;;10.70;7.20;;;16.00;99.90;;;;;;5071462;28;20051;-81
2022/07/04 06:04:10;;;;;;;10.25;6.88;;;16.20;99.90;;;;;;5086101;28;20064;-82
2022/07/04 06:06:36;;;;;;;15.18;6.15;;;16.40;99.90;;;;;;5092462;28;20062;-83
2022/07/04 06:09:03;;;;;;;9.98;5.82;;;16.70;99.90;;;;;;5089511;28;20036;-82
2022/07/04 06:11:29;;;;;;;9.57;5.65;;;17.00;99.90;;;;;;5091041;28;20040;-82
2022/07/04 06:13:55;;;;;;;11.50;5.50;;;17.30;99.90;;;;;;5105327;28;20035;-82
2022/07/04 06:16:21;;;;;;;7.80;4.40;;;17.70;99.90;;;;;;5095044;28;20043;-82
2022/07/04 06:18:46;;;;;;;8.68;4.80;;;18.10;99.90;;;;;;5097647;28;20438;-82
2022/07/04 06:21:12;;;;;;;10.05;3.90;;;18.40;99.90;;;;;;5091461;28;20044;-82
2022/07/04 06:23:38;;;;;;;8.90;3.45;;;18.70;99.90;;;;;;5114629;28;20491;-83
2022/07/04 06:26:04;;;;;;;7.15;3.33;;;18.90;99.90;;;;;;5092848;28;20114;-82
2022/07/04 06:28:30;;;;;;;9.38;3.30;;;19.10;99.90;;;;;;5102687;28;20111;-81
2022/07/04 06:30:56;;;;;;;4.35;2.65;;;19.30;99.90;;;;;;5088435;28;20039;-82
2022/07/04 06:33:22;;;;;;;9.43;2.97;;;19.50;99.90;;;;;;5117451;28;20048;-82
2022/07/04 06:35:56;;;;;;;8.25;2.97;;;19.80;99.90;;;;;;5069889;28;20086;-82
2022/07/04 06:38:27;;;;;;;6.53;2.67;;;20.00;99.90;;;;;;5087779;28;20047;-81
2022/07/04 06:40:58;;;;;;;4.13;2.67;;;20.20;99.90;;;;;;5086600;28;20092;-81
2022/07/04 06:43:24;;;;;;;6.20;2.88;;;20.10;99.90;;;;;;5095926;28;20028;-82
2022/07/04 06:45:50;;;;;;;;;;;20.10;99.90;;;;;;5084008;28;20028;-82
2022/07/04 06:48:17;;;;;;;5.15;3.03;;;20.20;99.90;;;;;;5093799;28;19929;-82
2022/07/04 06:50:42;;;;;;;6.20;2.80;;;20.20;99.90;;;;;;5093224;28;20511;-82
2022/07/04 06:53:10;;;;;;;4.95;2.72;;;20.50;99.90;;;;;;5091819;28;20101;-82
2022/07/04 06:55:39;;;;;;;8.02;2.47;;;20.80;99.90;;;;;;5075876;28;20044;-81
2022/07/04 06:58:07;;;;;;;6.78;2.65;;;21.00;99.90;;;;;;5092890;28;20433;-83
2022/07/04 07:00:33;;;;;;;6.13;2.45;;;21.10;99.90;;;;;;5089765;28;20047;-83
2022/07/04 07:03:00;;;;;;;5.28;2.40;;;21.30;99.90;;;;;;5086848;28;20602;-82
2022/07/04 07:05:27;;;;;;;5.28;2.30;;;21.30;99.90;;;;;;5066570;28;20486;-82
2022/07/04 07:07:53;;;;;;;5.90;2.67;;;21.40;99.90;;;;;;5084833;28;20483;-83
2022/07/04 07:10:20;;;;;;;6.85;2.50;;;21.60;99.90;;;;;;5069155;28;20043;-82
2022/07/04 07:12:46;;;;;;;6.28;2.28;;;21.60;99.90;;;;;;5066635;28;20039;-81
2022/07/04 07:15:13;;;;;;;4.97;2.70;;;21.60;99.90;;;;;;5085630;28;20385;-83
2022/07/04 07:17:42;;;;;;;6.13;2.30;;;21.70;99.90;;;;;;5084406;28;20115;-83
2022/07/04 07:20:08;;;;;;;8.88;2.83;;;21.70;99.90;;;;;;5087239;28;20040;-81
2022/07/04 07:22:34;;;;;;;5.90;3.03;;;21.80;99.90;;;;;;5087741;28;20028;-83
2022/07/04 07:24:59;;;;;;;6.55;3.00;;;21.90;99.90;;;;;;5084872;28;20048;-83
2022/07/04 07:27:26;;;;;;;9.82;2.65;;;21.60;99.90;;;;;;5105321;28;20047;-83
2022/07/04 07:29:51;;;;;;;6.47;2.90;;;21.30;99.90;;;;;;5078372;28;20043;-83
2022/07/04 07:32:17;;;;;;;6.32;2.65;;;21.00;99.90;;;;;;5091579;28;20043;-83
2022/07/04 07:34:43;;;;;;;7.75;2.80;;;20.80;99.90;;;;;;5095706;28;20067;-81
2022/07/04 07:37:09;;;;;;;6.78;2.28;;;21.00;99.90;;;;;;5085071;28;20051;-82
2022/07/04 07:39:35;;;;;;;4.13;2.22;;;21.30;99.90;;;;;;5092671;28;20043;-82
2022/07/04 07:42:01;;;;;;;4.22;2.35;;;21.50;99.90;;;;;;5119159;28;20115;-82
2022/07/04 07:44:27;;;;;;;5.78;2.47;;;21.70;99.90;;;;;;5090891;28;20083;-82
2022/07/04 07:46:53;;;;;;;3.67;2.40;;;21.90;99.90;;;;;;5093431;28;20036;-82
2022/07/04 07:49:18;;;;;;;7.07;2.45;;;22.20;99.90;;;;;;5079387;28;20075;-82
2022/07/04 07:51:44;;;;;;;6.60;2.55;;;22.40;99.90;;;;;;5089276;28;20415;-83
2022/07/04 07:54:10;;;;;;;8.13;3.05;;;22.40;99.90;;;;;;5093078;28;20422;-82
2022/07/04 07:56:36;;;;;;;7.28;2.60;;;22.10;99.90;;;;;;5067698;28;20541;-83
2022/07/04 07:59:01;;;;;;;7.55;2.20;;;21.90;99.90;;;;;;5069324;28;20040;-82
2022/07/04 08:01:27;;;;;;;5.38;1.60;;;21.50;99.90;;;;;;5037870;28;20105;-82
2022/07/04 08:06:37;;;;;;;8.57;1.83;;;20.80;99.90;;;;;;5049418;28;20032;-83
2022/07/04 08:09:03;;;;;;;5.95;2.65;;;20.50;99.90;;;;;;5079970;28;20670;-82
2022/07/04 08:11:29;;;;;;;5.15;2.65;;;20.20;99.90;;;;;;5030720;28;20036;-82
2022/07/04 08:13:54;;;;;;;6.65;2.63;;;19.90;99.90;;;;;;5062721;28;20036;-82
2022/07/04 08:16:20;;;;;;;4.18;2.40;;;19.70;99.90;;;;;;5036988;28;20036;-81
2022/07/04 08:18:46;;;;;;;6.65;2.33;;;19.50;99.90;;;;;;5060358;28;20048;-81
2022/07/04 08:21:13;;;;;;;5.93;2.10;;;19.40;99.90;;;;;;5059710;28;20040;-80
2022/07/04 08:23:39;;;;;;;5.18;2.63;;;19.20;99.90;;;;;;5061977;28;20041;-82
2022/07/04 08:26:05;;;;;;;4.93;2.17;;;19.00;99.90;;;;;;5061317;28;20071;-81
2022/07/04 08:28:31;;;;;;;9.07;2.40;;;18.90;99.90;;;;;;5059903;28;20063;-81
2022/07/04 08:30:57;;;;;;;4.20;2.20;;;18.80;99.90;;;;;;5061218;28;20032;-82
2022/07/04 08:33:24;;;;;;;7.03;2.25;;;18.80;99.90;;;;;;5064920;28;20119;-82
2022/07/04 08:35:50;;;;;;;4.90;1.80;;;18.80;99.90;;;;;;5064331;28;20048;-82
2022/07/04 08:38:16;;;;;;;5.47;1.67;;;18.80;99.90;;;;;;5061046;28;20044;-82
2022/07/04 08:40:42;;;;;;;2.67;1.25;;;18.70;99.90;;;;;;5063422;28;20119;-83
2022/07/04 08:43:13;;;;;;;3.72;1.65;;;18.70;99.90;;;;;;5060846;28;20040;-82
2022/07/04 08:45:40;;;;;;;6.47;1.70;;;18.70;99.90;;;;;;5059835;28;20696;-81
2022/07/04 08:48:09;;;;;;;5.20;1.60;;;18.70;99.90;;;;;;5060675;28;20161;-81
2022/07/04 08:50:39;;;;;;;3.35;1.60;;;18.70;99.90;;;;;;5070884;28;20036;-83
2022/07/04 08:53:11;;;;;;;3.35;1.30;;;18.70;99.90;;;;;;5078485;28;20426;-81
2022/07/04 08:58:30;;;;;;;2.97;1.42;;;18.90;99.90;;;;;;5076955;28;20051;-82
2022/07/04 09:01:05;;;;;;;5.25;1.13;;;19.20;99.90;;;;;;5042048;28;20185;-82
2022/07/04 09:03:31;;;;;;;4.55;1.45;;;19.80;99.90;;;;;;5077326;28;20111;-82
2022/07/04 09:05:58;;;;;;;4.50;1.42;;;20.50;99.90;;;;;;5062619;28;20038;-82
2022/07/04 09:08:24;;;;;;;1.90;1.00;;;21.20;99.90;;;;;;5058093;28;20063;-82
2022/07/04 09:10:51;;;;;;;3.05;1.00;;;21.80;99.90;;;;;;5058701;28;20123;-81
2022/07/04 09:13:18;;;;;;;3.70;1.20;;;22.20;99.90;;;;;;5063542;28;20488;-82
2022/07/04 09:15:46;;;;;;;3.13;0.80;;;22.60;99.90;;;;;;5058080;28;20040;-82
2022/07/04 09:18:32;;;;;;;3.20;0.98;;;22.80;99.90;;;;;;5060893;28;20041;-82
2022/07/04 09:21:00;;;;;;;4.10;1.33;;;22.80;99.90;;;;;;5044038;28;20043;-82
2022/07/04 09:23:29;;;;;;;2.08;0.70;;;22.60;99.90;;;;;;5081832;28;20040;-82
2022/07/04 09:26:33;;;;;;;3.03;0.85;;;22.40;99.90;;;;;;5063559;28;20040;-82
2022/07/04 09:28:59;;;;;;;2.22;0.80;;;22.30;99.90;;;;;;5057555;28;20378;-83
2022/07/04 09:31:26;;;;;;;;;;;22.40;99.90;;;;;;5060035;28;20047;-82
2022/07/04 09:33:55;;;;;;;4.38;0.82;;;22.40;99.90;;;;;;5064875;28;20425;-82
2022/07/04 09:36:27;;;;;;;1.92;0.70;;;22.80;99.90;;;;;;5048679;28;20046;-83
2022/07/04 09:39:20;;;;;;;3.90;0.88;;;23.30;99.90;;;;;;5062129;28;20461;-82
2022/07/04 09:42:00;;;;;;;1.10;0.65;;;23.50;99.90;;;;;;5063633;28;20076;-82
2022/07/04 09:44:50;;;;;;;3.00;0.70;;;23.70;99.90;;;;;;5050430;28;20040;-82
2022/07/04 09:47:29;;;;;;;3.42;0.75;;;23.60;99.90;;;;;;5067665;28;20129;-82
2022/07/04 09:50:18;;;;;;;2.15;0.70;;;23.70;99.90;;;;;;5042116;28;20499;-83
2022/07/04 09:53:05;;;;;;;2.58;0.65;;;23.60;99.90;;;;;;5063969;28;20066;-82
2022/07/04 09:55:37;;;;;;;3.53;0.80;;;23.50;99.90;;;;;;5084299;28;20036;-82
2022/07/04 09:58:11;;;;;;;3.65;0.80;;;23.50;99.90;;;;;;5063635;28;20041;-82
2022/07/04 10:00:41;;;;;;;2.67;0.70;;;23.60;99.90;;;;;;5086091;28;20091;-83
2022/07/04 10:03:25;;;;;;;2.70;0.70;;;23.70;99.90;;;;;;5083790;28;20043;-82
2022/07/04 10:06:10;;;;;;;1.65;0.80;;;23.90;99.90;;;;;;5103819;28;20097;-82
2022/07/04 10:08:37;;;;;;;1.63;0.57;;;24.30;99.90;;;;;;5086141;28;20333;-82
2022/07/04 10:11:04;;;;;;;3.75;0.80;;;24.60;99.90;;;;;;5084732;28;20039;-82
2022/07/04 10:13:30;;;;;;;1.98;0.50;;;24.70;99.90;;;;;;5068675;28;20122;-82
2022/07/04 10:15:56;;;;;;;;;;;24.80;99.90;;;;;;5081239;28;20122;-82
2022/07/04 10:18:23;;;;;;;3.13;0.50;;;24.90;99.90;;;;;;5086861;28;19912;-82
2022/07/04 10:20:51;;;;;;;2.00;0.52;;;25.10;99.90;;;;;;5086544;28;20105;-82
2022/07/04 10:23:21;;;;;;;1.20;0.40;;;25.40;99.50;;;;;;5086188;28;20563;-82
2022/07/04 10:25:48;;;;;;;2.55;0.60;;;25.60;98.00;;;;;;5105158;28;20491;-83
2022/07/04 10:28:15;;;;;;;3.47;0.80;;;25.50;98.20;;;;;;5091953;28;20035;-82
2022/07/04 10:30:41;;;;;;;4.90;0.75;;;25.30;98.30;;;;;;5086536;28;20123;-82
2022/07/04 10:33:09;;;;;;;0.95;0.75;;;25.70;98.70;;;;;;5085098;28;20044;-82
2022/07/04 10:35:55;;;;;;;1.63;0.60;;;25.60;98.60;;;;;;5087604;28;20043;-84
2022/07/04 10:38:31;;;;;;;1.65;0.43;;;26.00;98.70;;;;;;5109627;28;20115;-83
2022/07/04 10:41:05;;;;;;;4.55;0.73;;;26.30;98.10;;;;;;5081941;28;20147;-83
2022/07/04 10:43:33;;;;;;;2.17;0.60;;;26.60;97.20;;;;;;5082687;28;20052;-84
2022/07/04 10:46:05;;;;;;;2.65;0.50;;;26.60;96.20;;;;;;5066963;28;20480;-80
2022/07/04 10:48:32;;;;;;;2.00;0.57;;;26.80;97.10;;;;;;5088517;28;20044;-80
2022/07/04 10:51:05;;;;;;;1.60;0.50;;;26.70;96.80;;;;;;5089268;28;20039;-80
2022/07/04 10:53:52;;;;;;;3.40;0.80;;;26.80;97.10;;;;;;5087847;28;20051;-79
2022/07/04 10:56:18;;;;;;;;;;;26.80;97.10;;;;;;5094649;28;20044;-80
2022/07/04 10:58:44;;;;;;;2.40;0.40;;;26.80;96.70;;;;;;5092713;28;19916;-84
2022/07/04 11:01:19;;;;;;;1.48;0.30;;;27.20;96.80;;;;;;5046779;28;20127;-79
2022/07/04 11:03:50;;;;;;;3.45;0.60;;;27.30;96.80;;;;;;5070405;28;20438;-79
2022/07/04 11:06:35;;;;;;;2.67;0.30;;;27.40;97.00;;;;;;5055989;28;20032;-79
2022/07/04 11:09:33;;;;;;;3.25;0.43;;;27.60;95.70;;;;;;5062884;28;20444;-79
2022/07/04 11:12:00;;;;;;;1.65;0.50;;;27.10;95.80;;;;;;5059795;28;20496;-79
2022/07/04 11:14:41;;;;;;;2.25;0.50;;;26.60;95.90;;;;;;5079368;28;20040;-77
2022/07/04 11:17:33;;;;;;;3.25;0.70;;;26.40;95.70;;;;;;5071224;28;20051;-80
2022/07/04 11:20:03;;;;;;;3.38;0.57;;;26.10;96.40;;;;;;5064389;28;20032;-79
2022/07/04 11:22:30;;;;;;;2.08;0.28;;;25.50;95.60;;;;;;5048631;28;20119;-78
2022/07/04 11:24:56;;;;;;;4.18;0.57;;;25.70;96.00;;;;;;5048065;28;20036;-77
2022/07/04 11:27:23;;;;;;;2.65;0.50;;;26.00;95.90;;;;;;5080983;28;20035;-77
2022/07/04 11:29:55;;;;;;;1.40;0.65;;;26.40;96.10;;;;;;5084414;28;20091;-79
2022/07/04 11:32:30;;;;;;;1.23;0.47;;;26.50;95.10;;;;;;5065662;28;20055;-77
2022/07/04 11:34:56;;;;;;;1.77;0.40;;;26.40;94.60;;;;;;5061669;28;20047;-78
2022/07/04 11:37:22;;;;;;;3.10;0.50;;;26.30;94.90;;;;;;5061026;28;20396;-84
2022/07/04 11:39:52;;;;;;;2.95;0.40;;;26.30;94.70;;;;;;5066293;28;20040;-83
2022/07/04 11:45:05;;;;;;;2.75;0.50;;;26.60;93.90;;;;;;5066181;28;20043;-83
2022/07/04 11:47:39;;;;;;;3.58;0.40;;;26.70;95.10;;;;;;5047409;28;20075;-83
2022/07/04 11:50:11;;;;;;;2.13;0.35;;;26.90;94.90;;;;;;5064487;28;20032;-83
2022/07/04 11:52:36;;;;;;;1.98;0.40;;;26.60;94.40;;;;;;5064225;28;20120;-83
2022/07/04 11:55:04;;;;;;;0.98;0.30;;;26.00;94.70;;;;;;5049422;28;20040;-83
2022/07/04 11:57:37;;;;;;;1.70;0.40;;;25.80;94.30;;;;;;5077472;28;20046;-83
2022/07/04 12:00:11;;;;;;;2.60;0.43;;;25.80;94.00;;;;;;5066805;28;20182;-82
2022/07/04 12:02:38;;;;;;;2.75;0.50;;;26.10;94.20;;;;;;5082191;28;20407;-83
2022/07/04 12:05:06;;;;;;;1.33;0.35;;;26.30;94.40;;;;;;5081700;28;20039;-82
2022/07/04 12:07:35;;;;;;;3.15;0.57;;;25.80;93.60;;;;;;5100953;28;20044;-83
2022/07/04 12:10:13;;;;;;;2.42;0.57;;;25.90;95.20;;;;;;5082971;28;20134;-82
2022/07/04 12:12:55;;;;;;;1.88;0.52;;;26.20;94.10;;;;;;5107009;28;20486;-83
2022/07/04 12:15:22;;;;;;;5.38;0.32;;;25.90;94.40;;;;;;5086288;28;20732;-81
2022/07/04 12:17:54;;;;;;;2.85;0.70;;;25.90;94.80;;;;;;5092727;28;20119;-82
2022/07/04 12:20:21;;;;;;;1.70;0.38;;;26.30;94.20;;;;;;5089117;28;20048;-82
2022/07/04 12:22:59;;;;;;;2.85;0.57;;;26.70;94.20;;;;;;5085313;28;20039;-82
2022/07/04 12:25:34;;;;;;;3.28;0.70;;;27.00;94.20;;;;;;5082947;28;20123;-83
2022/07/04 12:28:04;;;;;;;3.00;0.55;;;26.80;93.40;;;;;;5082803;28;20036;-83
2022/07/04 12:30:36;;;;;;;1.05;0.30;;;26.60;93.50;;;;;;5082774;28;20479;-83
2022/07/04 12:33:07;;;;;;;3.10;0.60;;;26.90;94.50;;;;;;5081906;28;20101;-80
2022/07/04 12:35:43;;;;;;;2.05;0.50;;;27.00;93.90;;;;;;5083061;28;20075;-81
2022/07/04 12:38:13;;;;;;;6.45;0.68;;;26.90;93.60;;;;;;5089958;28;20089;-79
2022/07/04 12:40:58;;;;;;;1.73;0.60;;;26.70;94.10;;;;;;5090719;28;20086;-80
2022/07/04 12:43:43;;;;;;;3.38;0.52;;;26.40;94.10;;;;;;5091742;28;20040;-79
2022/07/04 12:46:31;;;;;;;1.95;0.57;;;26.10;94.30;;;;;;5090014;28;20047;-80
2022/07/04 12:48:58;;;;;;;2.40;0.63;;;26.50;95.10;;;;;;5083001;28;20075;-79
2022/07/04 12:51:32;;;;;;;1.80;0.47;;;27.00;94.70;;;;;;5085103;28;20122;-79
2022/07/04 12:54:06;;;;;;;1.67;0.40;;;27.20;93.90;;;;;;5088418;28;20049;-79
2022/07/04 12:56:33;;;;;;;3.13;0.40;;;27.10;93.80;;;;;;5092100;28;20120;-79
2022/07/04 12:59:02;;;;;;;1.17;0.40;;;26.80;93.90;;;;;;5082653;28;20093;-80
2022/07/04 13:01:28;;;;;;;2.55;0.50;;;26.80;93.90;;;;;;5099528;28;20113;-81
2022/07/04 13:03:54;;;;;;;1.63;0.40;;;27.10;93.60;;;;;;5072477;28;20045;-81
2022/07/04 13:06:20;;;;;;;2.80;0.43;;;27.00;93.80;;;;;;5085705;28;20035;-80
2022/07/04 13:08:46;;;;;;;1.90;0.35;;;26.50;93.90;;;;;;5076353;28;20511;-81